• Join FlightAware (Why Join?)
  • Login
  • US Flag 
12:46PM EDT


 

Airport Tracker/Info


-or-


 

Live Flight TrackerFlight Track Log ✈ RPA3143 ✈ 15-Jul-2013 ✈ KDCA - KMCO

Flight Track Log - Related Links

Times and Time Zones

All times are in EDT time to prevent confusion due to time zone crossing. See the RPA3143 flight status page for this flight to view local times or setup timezone preferences in your user account.

Time Position Orientation Groundspeed Altitude Reporting Facility
EDT Latitude Longitude Course Direction KTS MPH feet Rate Location/Type
07:54AM 38.8167 -77.0333 233° Southwest 160 184 1,300  Level Potomac TRACON
07:55AM 38.7667 -77.0333 180° South 188 216 3,200 1,920 Climbing Potomac TRACON
07:56AM 38.6399 -77.2768 218° Southwest  Level FlightAware Approximate
07:56AM 38.7333 -77.0833 229° Southwest 243 280 5,200  Level Potomac TRACON
07:57AM 38.5632 -77.3535 218° Southwest  Level FlightAware Approximate
07:57AM 38.6833 -77.1667 232° Southwest 279 321 7,800  Level Potomac TRACON
07:58AM 38.4915 -77.4372 225° Southwest  Level FlightAware Approximate
07:58AM 38.6333 -77.2167 218° Southwest 289 333 10,000  Level Potomac TRACON
07:59AM 38.4229 -77.5254 225° Southwest  Level FlightAware Approximate
07:59AM 38.5667 -77.3167 230° Southwest 321 369 12,300  Level Potomac TRACON
08:00AM 38.3513 -77.6034 233° Southwest  Level FlightAware Approximate
08:01AM 38.4950 -77.4272 230° Southwest 349 402 14,500  Level Washington Center
08:02AM 38.4289 -77.5211 228° Southwest 354 407 16,600 1,680 Climbing Washington Center
08:03AM 38.3647 -77.6200 230° Southwest 359 413 18,000 1,560 Climbing Washington Center
08:04AM 38.2961 -77.7242 230° Southwest 371 427 19,800 1,740 Climbing Washington Center
08:05AM 38.2253 -77.8306 230° Southwest 382 440 21,500 1,680 Climbing Washington Center
08:06AM 38.1567 -77.9392 231° Southwest 393 452 23,200 1,560 Climbing Washington Center
08:07AM 38.0814 -78.0503 229° Southwest 398 458 24,600 1,500 Climbing Washington Center
08:08AM 37.9978 -78.1636 227° Southwest 408 470 26,200 1,380 Climbing Washington Center
08:09AM 37.9100 -78.2581 220° Southwest 408 470 27,400 1,080 Climbing Washington Center
08:10AM 37.8142 -78.3467 216° Southwest 419 482 28,400 1,020 Climbing Washington Center
08:11AM 37.7161 -78.4403 217° Southwest 430 495 29,500 1,140 Climbing Washington Center
08:12AM 37.6286 -78.5233 217° Southwest 441 507 30,700 1,200 Climbing Washington Center
08:13AM 37.5303 -78.6139 216° Southwest 441 507 32,000 1,140 Climbing Washington Center
08:14AM 37.4364 -78.7044 217° Southwest 441 507 33,000 1,020 Climbing Washington Center
08:15AM 37.3400 -78.7919 216° Southwest 441 507 34,100 1,020 Climbing Washington Center
08:16AM 37.2353 -78.8867 216° Southwest 441 507 35,100 720 Climbing Washington Center
08:17AM 37.1433 -78.9714 216° Southwest 436 502 35,600 360 Climbing Washington Center
08:18AM 37.0467 -79.0608 216° Southwest 436 502 35,900 180 Climbing Washington Center
08:19AM 36.9525 -79.1500 217° Southwest 431 496 36,000  Climbing Washington Center
08:20AM 36.8517 -79.2414 216° Southwest 437 503 36,000  Level Washington Center
08:21AM 36.6775 -79.4003 216° Southwest 435 501 36,000  Level Atlanta Center
08:22AM 36.5850 -79.4858 217° Southwest 447 514 36,000  Level Atlanta Center
08:23AM 36.4839 -79.5769 216° Southwest 452 520 36,000  Level Atlanta Center
08:24AM 36.3831 -79.6675 216° Southwest 452 520 36,000  Level Atlanta Center
08:25AM 36.2819 -79.7606 217° Southwest 452 520 36,000  Level Atlanta Center
08:26AM 36.1706 -79.8592 216° Southwest 457 526 36,000  Level Atlanta Center
08:27AM 36.0675 -79.9519 216° Southwest 457 526 36,000  Level Atlanta Center
08:28AM 35.9569 -80.0189 206° Southwest 452 520 36,000  Level Atlanta Center
08:29AM 35.8544 -80.0703 202° Southwest 447 514 36,000  Level Atlanta Center
08:30AM 35.7414 -80.1242 201° Southwest 447 514 36,000  Level Atlanta Center
08:31AM 35.6286 -80.1883 205° Southwest 447 514 36,000  Level Atlanta Center
08:32AM 35.5178 -80.2447 202° Southwest 447 514 36,000  Level Atlanta Center
08:33AM 35.4025 -80.2983 201° Southwest 447 514 36,000  Level Atlanta Center
08:34AM 35.2897 -80.3569 203° Southwest 447 514 36,000  Level Atlanta Center
08:39AM 34.8189 -80.5914 202° Southwest 437 503 36,000  Level Jacksonville Center
08:40AM 34.7114 -80.6447 202° Southwest 432 497 36,000  Level Jacksonville Center
08:41AM 34.5894 -80.7008 201° Southwest 445 512 36,000  Level Jacksonville Center
08:42AM 34.4756 -80.7617 204° Southwest 469 540 36,000  Level Jacksonville Center
08:43AM 34.3597 -80.8100 199° South 453 521 36,000  Level Jacksonville Center
08:44AM 34.2522 -80.8703 205° Southwest 440 506 36,000  Level Jacksonville Center
08:45AM 34.1342 -80.9256 201° Southwest 441 507 36,000  Level Jacksonville Center
08:46AM 34.0222 -80.9783 201° Southwest 441 507 36,000  Level Jacksonville Center
08:47AM 33.8958 -81.0386 202° Southwest 446 513 36,000  Level Jacksonville Center
08:48AM 33.7881 -81.0833 199° South 452 520 36,000  Level Jacksonville Center
08:49AM 33.6761 -81.1406 203° Southwest 452 520 36,000  Level Jacksonville Center
08:50AM 33.5578 -81.1953 201° Southwest 452 520 36,000  Level Jacksonville Center
08:51AM 33.4439 -81.2497 202° Southwest 452 520 36,000  Level Jacksonville Center
08:52AM 33.3297 -81.3039 202° Southwest 452 520 36,000  Level Jacksonville Center
08:53AM 33.2011 -81.3608 200° South 452 520 36,000  Level Jacksonville Center
08:54AM 33.0847 -81.4150 201° Southwest 452 520 36,000  Level Jacksonville Center
08:55AM 32.9686 -81.4689 201° Southwest 452 520 36,000  Level Jacksonville Center
08:56AM 32.8542 -81.5225 201° Southwest 452 520 36,000  Level Jacksonville Center
08:57AM 32.7358 -81.5739 200° South 452 520 36,000  Level Jacksonville Center
08:58AM 32.6342 -81.6247 203° Southwest 446 513 36,000  Level Jacksonville Center
08:59AM 32.5072 -81.6831 201° Southwest 451 519 36,000  Level Jacksonville Center
09:00AM 32.4014 -81.7336 202° Southwest 457 526 36,000  Level Jacksonville Center
09:01AM 32.2725 -81.7917 201° Southwest 452 520 36,000  Level Jacksonville Center
09:02AM 32.1539 -81.8447 201° Southwest 452 520 36,000  Level Jacksonville Center
09:03AM 32.0478 -81.8900 200° South 452 520 36,000  Level Jacksonville Center
09:04AM 31.9186 -81.9478 201° Southwest 454 522 36,000  Level Jacksonville Center
09:05AM 31.8125 -81.9953 201° Southwest 454 522 36,000  Level Jacksonville Center
09:06AM 31.6836 -82.0503 200° South 447 514 36,000 -60 Level Jacksonville Center
09:07AM 31.5606 -82.0733 189° South 447 514 35,900 -780 Descending Jacksonville Center
09:08AM 31.4375 -82.0892 186° South 447 514 34,500 -960 Descending Jacksonville Center
09:09AM 31.3142 -82.1022 185° South 447 514 34,000 -300 Descending Jacksonville Center
09:10AM 31.1869 -82.1178 186° South 447 514 34,000  Level Jacksonville Center
09:11AM 31.0661 -82.1311 185° South 447 514 34,000  Level Jacksonville Center
09:12AM 30.9386 -82.1489 187° South 447 514 34,000  Level Jacksonville Center
09:13AM 30.8178 -82.1619 185° South 447 514 34,000  Level Jacksonville Center
09:14AM 30.6947 -82.1750 185° South 447 514 34,000  Level Jacksonville Center
09:15AM 30.5694 -82.1881 185° South 447 514 34,000  Level Jacksonville Center
09:16AM 30.4442 -82.1961 183° South 447 514 34,000 -780 Level Jacksonville Center
09:17AM 30.3189 -82.2117 186° South 454 522 32,500 -2,280 Descending Jacksonville Center
09:18AM 30.1917 -82.2269 186° South 461 531 29,500 -3,000 Descending Jacksonville Center
09:19AM 30.0683 -82.2108 174° South 445 512 26,600 -2,160 Descending Jacksonville Center
09:20AM 29.9619 -82.1828 167° South 440 506 25,200 -1,320 Descending Jacksonville Center
09:21AM 29.8508 -82.1431 163° South 427 491 24,100 -1,440 Descending Jacksonville Center
09:22AM 29.7336 -82.0936 160° South 422 486 22,400 -1,620 Descending Jacksonville Center
09:23AM 29.6250 -82.0517 161° South 417 480 20,900 -1,560 Descending Jacksonville Center
09:24AM 29.5308 -82.0214 164° South 406 467 19,300 -1,440 Descending Jacksonville Center
09:25AM 29.4344 -81.9842 161° South 390 449 18,000 -1,200 Descending Jacksonville Center
09:26AM 29.3381 -81.9492 162° South 367 422 16,900 -1,020 Descending Jacksonville Center
09:27AM 29.2461 -81.9169 163° South 360 414 16,000 -480 Descending Jacksonville Center
09:28AM 29.1456 -81.8750 160° South 354 407 16,000  Level Jacksonville Center
09:29AM 29.0492 -81.8428 164° South 354 407 16,000 -480 Level Jacksonville Center
09:31AM 28.9106 -81.7183 142° Southeast 336 387 14,600 -840 Descending Jacksonville Center
09:31AM 28.8667 -81.6500 126° Southeast 314 361 13,900 -1,500 Descending Orlando TRACON
09:32AM 28.8167 -81.5833 131° Southeast 277 319 12,100 -1,860 Descending Orlando TRACON
09:33AM 28.7667 -81.5167 131° Southeast 286 329 10,200 -1,560 Descending Orlando TRACON
09:34AM 28.7000 -81.4833 156° South 279 321 9,000 -600 Descending Orlando TRACON
09:35AM 28.6333 -81.4333 147° Southeast 279 321 9,000  Level Orlando TRACON
09:36AM 28.5667 -81.4167 168° South 239 275 9,000 -300 Level Orlando TRACON
09:37AM 28.5000 -81.4167 180° South 242 278 8,400 -1,020 Descending Orlando TRACON
09:38AM 28.4333 -81.4167 180° South 241 277 7,000 -1,500 Descending Orlando TRACON
09:39AM 28.3667 -81.4167 180° South 227 261 5,400 -1,560 Descending Orlando TRACON
09:40AM 28.3000 -81.4000 168° South 195 224 3,900 -1,200 Descending Orlando TRACON
09:41AM 28.2833 -81.3667 120° Southeast 186 214 3,000 -900 Descending Orlando TRACON